Time;durP1;ratioP1;P1;durP2;ratioP2;P2;SDS_P1;SDS_P2;PMS_P1;PMS_P2;Temp;Humidity;BMP_temperature;BMP_pressure;BME280_temperature;BME280_humidity;BME280_pressure;Samples;Min_cycle;Max_cycle;Signal;HPM_P1;HPM_P2
2022/04/14 00:01:25;;;;;;;81.30;52.70;;;19.80;57.80;;;;;;4948522;28;93534;-37
2022/04/14 00:03:50;;;;;;;80.55;53.03;;;19.90;57.90;;;;;;4951752;28;90114;-37
2022/04/14 00:06:16;;;;;;;80.18;52.85;;;19.80;57.90;;;;;;4950470;28;90815;-37
2022/04/14 00:08:42;;;;;;;82.63;53.60;;;19.80;57.80;;;;;;4948862;28;90805;-37
2022/04/14 00:11:07;;;;;;;80.95;53.55;;;19.80;58.00;;;;;;4951817;28;90237;-37
2022/04/14 00:13:34;;;;;;;81.38;53.17;;;19.80;57.80;;;;;;4951680;28;89630;-37
2022/04/14 00:16:00;;;;;;;81.78;53.42;;;19.80;57.80;;;;;;4957375;28;90979;-37
2022/04/14 00:18:25;;;;;;;80.13;52.88;;;19.80;57.90;;;;;;4949442;28;91983;-37
2022/04/14 00:20:51;;;;;;;80.38;53.17;;;19.70;57.90;;;;;;4957337;28;89909;-37
2022/04/14 00:23:16;;;;;;;80.22;52.85;;;19.70;57.80;;;;;;4954678;28;91363;-37
2022/04/14 00:25:42;;;;;;;80.65;53.00;;;19.70;57.80;;;;;;4953437;28;90610;-37
2022/04/14 00:28:08;;;;;;;80.72;52.92;;;19.70;57.80;;;;;;4952669;28;89740;-37
2022/04/14 00:30:33;;;;;;;80.35;53.17;;;19.70;57.80;;;;;;4954602;28;89453;-37
2022/04/14 00:32:59;;;;;;;80.05;52.83;;;19.70;57.80;;;;;;4948538;28;89030;-37
2022/04/14 00:35:25;;;;;;;81.70;53.15;;;19.70;57.80;;;;;;4958045;28;89807;-37
2022/04/14 00:37:50;;;;;;;79.80;53.13;;;19.70;57.80;;;;;;4950997;28;91960;-37
2022/04/14 00:40:16;;;;;;;79.40;53.15;;;19.70;57.80;;;;;;4943527;28;91115;-37
2022/04/14 00:42:42;;;;;;;80.13;52.70;;;19.70;57.80;;;;;;4943701;28;90296;-37
2022/04/14 00:45:09;;;;;;;81.78;52.90;;;19.70;57.80;;;;;;4953036;28;89667;-37
2022/04/14 00:47:38;;;;;;;79.38;53.00;;;19.70;57.80;;;;;;4953756;28;89911;-37
2022/04/14 00:50:04;;;;;;;81.03;53.15;;;19.70;57.80;;;;;;4952388;28;89660;-37
2022/04/14 00:52:30;;;;;;;79.75;52.92;;;19.60;57.80;;;;;;4949788;28;89893;-37
2022/04/14 00:54:56;;;;;;;80.00;52.83;;;19.60;57.90;;;;;;4945929;28;90307;-37
2022/04/14 00:57:22;;;;;;;79.60;52.83;;;19.70;57.80;;;;;;4948245;28;90011;-37
2022/04/14 00:59:48;;;;;;;81.28;53.03;;;19.60;57.80;;;;;;4953637;28;90163;-37
2022/04/14 01:02:13;;;;;;;80.10;53.00;;;19.60;57.80;;;;;;4949573;28;89753;-37
2022/04/14 01:04:40;;;;;;;80.07;53.03;;;19.60;57.90;;;;;;4939073;28;95058;-37
2022/04/14 01:07:07;;;;;;;79.88;52.90;;;19.60;57.90;;;;;;4947828;27;90909;-37
2022/04/14 01:09:34;;;;;;;81.38;52.85;;;19.60;57.90;;;;;;4942610;28;90392;-37
2022/04/14 01:12:00;;;;;;;80.10;53.03;;;19.60;57.90;;;;;;4947701;28;90352;-37
2022/04/14 01:14:27;;;;;;;79.70;52.85;;;19.60;57.90;;;;;;4952357;28;89933;-37
2022/04/14 01:16:54;;;;;;;80.13;52.83;;;19.60;57.90;;;;;;4953075;28;90286;-37
2022/04/14 01:19:20;;;;;;;79.38;52.58;;;19.60;57.80;;;;;;4948309;28;93253;-37
2022/04/14 01:21:53;;;;;;;79.38;52.75;;;19.60;57.80;;;;;;4954328;28;89113;-37
2022/04/14 01:24:18;;;;;;;80.05;53.13;;;19.60;57.80;;;;;;4946919;28;90257;-37
2022/04/14 01:26:44;;;;;;;79.72;52.95;;;19.60;57.70;;;;;;4953034;28;90151;-37
2022/04/14 01:29:24;;;;;;;79.05;52.88;;;19.60;57.80;;;;;;4948604;28;91149;-37
2022/04/14 01:31:50;;;;;;;79.65;52.88;;;19.60;57.80;;;;;;4956833;28;91130;-37
2022/04/14 01:34:16;;;;;;;79.30;53.10;;;19.50;57.80;;;;;;4946995;28;90418;-37
2022/04/14 01:36:42;;;;;;;79.63;52.75;;;19.50;57.80;;;;;;4956077;28;90012;-37
2022/04/14 01:39:11;;;;;;;79.55;52.70;;;19.50;57.90;;;;;;4953454;28;92570;-37
2022/04/14 01:41:41;;;;;;;81.35;53.22;;;19.50;57.90;;;;;;4953434;28;90435;-37
2022/04/14 01:44:08;;;;;;;79.70;52.92;;;19.50;57.80;;;;;;4954053;28;91245;-37
2022/04/14 01:46:34;;;;;;;79.00;52.63;;;19.50;57.90;;;;;;4953841;28;93329;-37
2022/04/14 01:49:01;;;;;;;80.43;52.80;;;19.40;57.90;;;;;;4951246;28;91739;-37
2022/04/14 01:51:27;;;;;;;79.18;52.65;;;19.40;57.90;;;;;;4949968;28;90635;-37
2022/04/14 01:53:53;;;;;;;79.53;52.83;;;19.40;57.90;;;;;;4945685;28;91086;-37
2022/04/14 01:56:19;;;;;;;79.38;52.80;;;19.40;57.90;;;;;;4951061;28;94565;-37
2022/04/14 01:58:45;;;;;;;80.22;53.03;;;19.40;57.80;;;;;;4951985;28;89809;-37
2022/04/14 02:01:11;;;;;;;78.93;52.78;;;19.40;58.00;;;;;;4953835;28;90696;-37
2022/04/14 02:03:36;;;;;;;80.13;52.58;;;19.40;57.80;;;;;;4947583;28;89936;-37
2022/04/14 02:06:03;;;;;;;78.95;52.78;;;19.40;57.90;;;;;;4952945;28;91110;-37
2022/04/14 02:08:29;;;;;;;79.90;52.83;;;19.40;57.80;;;;;;4951841;28;92256;-38
2022/04/14 02:10:54;;;;;;;79.82;52.20;;;19.40;58.00;;;;;;4948232;28;91173;-37
2022/04/14 02:13:20;;;;;;;78.70;52.47;;;19.40;58.00;;;;;;4949422;28;91227;-37
2022/04/14 02:15:46;;;;;;;79.18;52.70;;;19.30;58.00;;;;;;4957857;28;90758;-36
2022/04/14 02:18:11;;;;;;;79.35;52.42;;;19.30;57.90;;;;;;4952806;28;90988;-37
2022/04/14 02:20:37;;;;;;;79.10;52.67;;;19.30;57.90;;;;;;4956576;28;89889;-37
2022/04/14 02:23:03;;;;;;;79.10;52.47;;;19.30;57.90;;;;;;4958186;28;90615;-37
2022/04/14 02:25:29;;;;;;;79.35;52.35;;;19.30;58.00;;;;;;4949249;28;92773;-37
2022/04/14 02:27:55;;;;;;;79.28;52.90;;;19.30;57.90;;;;;;4951268;28;95254;-37
2022/04/14 02:30:21;;;;;;;79.95;53.13;;;19.30;58.00;;;;;;4947718;28;89888;-37
2022/04/14 02:32:47;;;;;;;80.03;53.20;;;19.30;57.90;;;;;;4953485;28;90119;-37
2022/04/14 02:35:12;;;;;;;79.22;52.80;;;19.20;57.90;;;;;;4950259;28;89957;-37
2022/04/14 02:37:38;;;;;;;79.18;52.83;;;19.20;57.90;;;;;;4952644;28;89647;-37
2022/04/14 02:40:04;;;;;;;80.40;52.65;;;19.20;57.90;;;;;;4951312;28;90440;-36
2022/04/14 02:42:30;;;;;;;79.05;52.72;;;19.20;57.90;;;;;;4944921;28;91783;-37
2022/04/14 02:44:56;;;;;;;79.03;52.60;;;19.20;57.90;;;;;;4947268;28;90358;-37
2022/04/14 02:47:22;;;;;;;78.97;53.08;;;19.20;58.10;;;;;;4952984;28;89830;-37
2022/04/14 02:49:47;;;;;;;79.18;52.65;;;19.20;58.00;;;;;;4950417;28;90923;-37
2022/04/14 02:52:13;;;;;;;78.45;52.58;;;19.20;57.90;;;;;;4949588;28;89920;-37
2022/04/14 02:54:39;;;;;;;79.32;52.67;;;19.20;57.90;;;;;;4952802;28;89869;-37
2022/04/14 02:57:08;;;;;;;79.00;53.10;;;19.20;58.00;;;;;;4954037;28;89986;-37
2022/04/14 02:59:36;;;;;;;80.10;52.95;;;19.20;57.80;;;;;;4948580;28;89103;-37
2022/04/14 03:02:03;;;;;;;78.40;52.53;;;19.20;58.00;;;;;;4950679;28;89756;-37
2022/04/14 03:04:30;;;;;;;80.40;52.88;;;19.20;57.90;;;;;;4951199;28;89678;-36
2022/04/14 03:06:56;;;;;;;79.55;53.40;;;19.10;57.80;;;;;;4953974;28;90969;-36
2022/04/14 03:09:22;;;;;;;78.57;52.33;;;19.10;57.80;;;;;;4948671;28;90086;-36
2022/04/14 03:11:48;;;;;;;78.05;52.40;;;19.10;58.50;;;;;;4946758;28;90396;-36
2022/04/14 03:14:14;;;;;;;78.93;52.63;;;19.10;58.00;;;;;;4945289;28;91129;-36
2022/04/14 03:16:40;;;;;;;78.47;52.63;;;19.10;57.90;;;;;;4950751;28;89833;-36
2022/04/14 03:19:06;;;;;;;78.18;52.08;;;19.10;57.90;;;;;;4949941;28;90748;-36
2022/04/14 03:21:31;;;;;;;78.68;52.47;;;19.10;58.00;;;;;;4948882;28;90383;-36
2022/04/14 03:23:57;;;;;;;78.82;52.72;;;19.10;57.90;;;;;;4954216;28;89341;-36
2022/04/14 03:26:23;;;;;;;77.93;52.47;;;19.10;57.90;;;;;;4950043;28;89604;-36
2022/04/14 03:28:48;;;;;;;79.72;52.60;;;19.10;57.80;;;;;;4951015;28;89954;-36
2022/04/14 03:31:14;;;;;;;78.63;52.15;;;19.10;57.90;;;;;;4948756;28;90994;-36
2022/04/14 03:33:39;;;;;;;78.75;52.70;;;19.00;58.50;;;;;;4951475;28;89886;-36
2022/04/14 03:36:05;;;;;;;78.38;52.42;;;19.00;57.90;;;;;;4948799;28;89748;-36
2022/04/14 03:38:31;;;;;;;78.00;52.50;;;19.00;57.80;;;;;;4961227;28;90184;-36
2022/04/14 03:40:59;;;;;;;78.32;52.47;;;19.00;58.50;;;;;;4942802;28;90051;-37
2022/04/14 03:43:25;;;;;;;78.50;52.38;;;19.00;57.90;;;;;;4952946;28;94293;-36
2022/04/14 03:45:51;;;;;;;78.55;52.63;;;19.00;57.90;;;;;;4951835;28;90008;-36
2022/04/14 03:48:17;;;;;;;78.00;52.45;;;19.00;58.00;;;;;;4949734;28;89026;-36
2022/04/14 03:50:43;;;;;;;77.88;52.38;;;18.90;57.80;;;;;;4943960;28;89636;-36
2022/04/14 03:53:08;;;;;;;78.75;52.22;;;19.00;58.00;;;;;;4952188;28;90403;-37
2022/04/14 03:55:34;;;;;;;79.03;52.55;;;18.90;57.80;;;;;;4951562;28;90688;-36
2022/04/14 03:57:59;;;;;;;78.45;52.33;;;18.90;57.90;;;;;;4946232;28;90292;-37
2022/04/14 04:00:25;;;;;;;78.22;52.38;;;18.90;58.00;;;;;;4951734;28;90689;-37
2022/04/14 04:02:51;;;;;;;78.28;52.35;;;18.90;58.00;;;;;;4945134;28;89908;-36
2022/04/14 04:05:17;;;;;;;78.53;52.50;;;18.90;58.00;;;;;;4953189;28;91304;-36
2022/04/14 04:07:44;;;;;;;79.03;52.75;;;18.90;58.00;;;;;;4953686;28;92346;-36
2022/04/14 04:10:10;;;;;;;78.13;52.28;;;18.90;58.10;;;;;;4945796;28;92267;-36
2022/04/14 04:12:35;;;;;;;78.22;52.47;;;18.80;58.00;;;;;;4945807;28;90021;-36
2022/04/14 04:15:01;;;;;;;77.85;52.15;;;18.90;58.00;;;;;;4948402;28;90189;-36
2022/04/14 04:17:27;;;;;;;78.22;52.58;;;18.80;58.00;;;;;;4944053;28;90241;-36
2022/04/14 04:19:52;;;;;;;77.88;52.38;;;18.80;58.00;;;;;;4947418;28;90732;-36
2022/04/14 04:22:18;;;;;;;78.68;52.28;;;18.80;57.90;;;;;;4947714;28;89724;-36
2022/04/14 04:24:43;;;;;;;78.75;52.83;;;18.80;57.90;;;;;;4946409;28;91026;-36
2022/04/14 04:27:09;;;;;;;79.43;52.70;;;18.80;58.00;;;;;;4952044;28;91131;-36
2022/04/14 04:29:35;;;;;;;78.05;52.45;;;18.80;57.90;;;;;;4954073;28;89828;-36
2022/04/14 04:32:00;;;;;;;77.93;52.10;;;18.80;58.00;;;;;;4951798;28;89781;-36
2022/04/14 04:34:26;;;;;;;78.00;52.13;;;18.80;57.90;;;;;;4951653;28;89896;-36
2022/04/14 04:36:52;;;;;;;77.68;52.22;;;18.80;57.90;;;;;;4954067;28;89301;-36
2022/04/14 04:39:18;;;;;;;77.90;52.20;;;18.70;57.90;;;;;;4955219;28;90573;-36
2022/04/14 04:41:43;;;;;;;79.35;52.33;;;18.70;58.00;;;;;;4949769;28;89868;-36
2022/04/14 04:44:09;;;;;;;78.25;52.35;;;18.70;57.90;;;;;;4950297;28;91166;-36
2022/04/14 04:46:35;;;;;;;77.60;52.33;;;18.70;58.10;;;;;;4951135;28;89838;-36
2022/04/14 04:49:01;;;;;;;78.72;52.55;;;18.70;58.00;;;;;;4946753;28;89883;-36
2022/04/14 04:51:27;;;;;;;78.28;52.33;;;18.70;58.00;;;;;;4949401;28;89788;-36
2022/04/14 04:53:53;;;;;;;78.35;52.65;;;18.70;58.00;;;;;;4953842;28;96516;-36
2022/04/14 04:56:19;;;;;;;78.18;52.75;;;18.70;57.90;;;;;;4958978;28;90035;-36
2022/04/14 04:58:45;;;;;;;77.57;51.85;;;18.70;57.90;;;;;;4957123;28;90456;-36
2022/04/14 05:01:12;;;;;;;78.25;52.00;;;18.70;57.90;;;;;;4951536;28;88904;-36
2022/04/14 05:03:38;;;;;;;77.32;52.22;;;18.70;57.90;;;;;;4951428;28;89963;-36
2022/04/14 05:06:04;;;;;;;77.80;52.53;;;18.70;57.80;;;;;;4953202;28;89939;-36
2022/04/14 05:08:29;;;;;;;77.75;52.33;;;18.60;57.90;;;;;;4951084;28;90923;-36
2022/04/14 05:10:55;;;;;;;77.13;52.20;;;18.60;57.90;;;;;;4946853;28;92954;-36
2022/04/14 05:13:21;;;;;;;79.13;52.00;;;18.70;57.80;;;;;;4944396;28;90065;-36
2022/04/14 05:15:46;;;;;;;78.20;52.35;;;18.70;57.90;;;;;;4953898;28;90186;-36
2022/04/14 05:18:12;;;;;;;78.00;52.65;;;18.70;57.80;;;;;;4953492;28;90873;-37
2022/04/14 05:20:40;;;;;;;78.00;52.20;;;18.70;58.40;;;;;;4947446;28;90688;-36
2022/04/14 05:23:09;;;;;;;77.18;52.00;;;18.70;57.80;;;;;;4954760;28;96161;-36
2022/04/14 05:25:36;;;;;;;77.50;52.13;;;18.70;57.80;;;;;;4954894;28;90334;-36
2022/04/14 05:28:02;;;;;;;77.90;52.40;;;18.70;57.70;;;;;;4952201;28;90046;-36
2022/04/14 05:30:27;;;;;;;77.38;52.20;;;18.70;57.70;;;;;;4948481;28;90136;-36
2022/04/14 05:32:53;;;;;;;78.40;52.53;;;18.70;57.70;;;;;;4958821;28;90436;-36
2022/04/14 05:35:21;;;;;;;78.28;52.28;;;18.60;57.80;;;;;;4945321;28;89984;-36
2022/04/14 05:37:47;;;;;;;77.50;52.08;;;18.60;57.70;;;;;;4949737;28;90562;-36
2022/04/14 05:40:13;;;;;;;78.75;52.45;;;18.60;57.70;;;;;;4947744;28;92964;-36
2022/04/14 05:42:39;;;;;;;76.78;51.92;;;18.60;57.80;;;;;;4943136;28;92124;-36
2022/04/14 05:45:05;;;;;;;79.25;51.97;;;18.60;57.60;;;;;;4943550;28;91232;-36
2022/04/14 05:47:33;;;;;;;78.15;51.97;;;18.60;57.70;;;;;;4941164;28;90174;-36
2022/04/14 05:49:59;;;;;;;79.53;52.22;;;18.60;57.70;;;;;;4947732;28;95803;-36
2022/04/14 05:52:24;;;;;;;76.97;51.70;;;18.60;57.60;;;;;;4954203;28;89604;-36
2022/04/14 05:54:50;;;;;;;77.40;51.90;;;18.60;57.80;;;;;;4953333;28;89967;-36
2022/04/14 05:57:16;;;;;;;78.63;52.15;;;18.60;57.70;;;;;;4953760;28;90546;-36
2022/04/14 05:59:42;;;;;;;76.97;51.75;;;18.60;57.70;;;;;;4954470;28;90439;-36
2022/04/14 06:02:09;;;;;;;77.13;51.95;;;18.60;57.80;;;;;;4952724;28;89648;-36
2022/04/14 06:04:35;;;;;;;77.78;52.45;;;18.60;57.70;;;;;;4936892;28;89694;-36
2022/04/14 06:07:00;;;;;;;77.72;51.85;;;18.60;57.60;;;;;;4949807;28;89842;-36
2022/04/14 06:09:26;;;;;;;77.85;52.33;;;18.60;57.50;;;;;;4947278;28;89984;-36
2022/04/14 06:11:52;;;;;;;78.25;52.40;;;18.60;57.60;;;;;;4945905;28;90904;-36
2022/04/14 06:14:17;;;;;;;77.30;51.97;;;18.60;57.60;;;;;;4953483;28;89050;-36
2022/04/14 06:16:43;;;;;;;78.40;52.50;;;18.60;57.50;;;;;;4949243;28;90955;-36
2022/04/14 06:19:09;;;;;;;77.38;52.40;;;18.60;57.60;;;;;;4949241;28;90138;-36
2022/04/14 06:21:34;;;;;;;78.25;52.22;;;18.60;57.50;;;;;;4952376;28;90638;-36
2022/04/14 06:24:00;;;;;;;77.70;51.97;;;18.60;57.50;;;;;;4951792;28;90127;-36
2022/04/14 06:26:26;;;;;;;77.28;52.17;;;18.60;57.50;;;;;;4949754;28;91585;-36
2022/04/14 06:28:51;;;;;;;77.35;52.08;;;18.60;57.50;;;;;;4947359;28;92069;-36
2022/04/14 06:31:17;;;;;;;78.47;52.13;;;18.60;57.50;;;;;;4949303;28;90237;-36
2022/04/14 06:33:44;;;;;;;78.47;52.05;;;18.60;57.50;;;;;;4953321;28;89683;-36
2022/04/14 06:36:10;;;;;;;76.65;51.85;;;18.60;57.50;;;;;;4952750;28;89938;-36
2022/04/14 06:38:36;;;;;;;78.13;51.88;;;18.60;57.50;;;;;;4950085;28;90037;-36
2022/04/14 06:41:02;;;;;;;78.15;51.85;;;18.60;57.50;;;;;;4944885;28;89648;-36
2022/04/14 06:43:30;;;;;;;77.43;52.22;;;18.60;57.50;;;;;;4945797;28;89911;-36
2022/04/14 06:45:58;;;;;;;78.25;52.20;;;18.60;57.50;;;;;;4950106;28;90753;-37
2022/04/14 06:48:23;;;;;;;77.43;52.15;;;18.60;57.50;;;;;;4947485;28;89760;-36
2022/04/14 06:50:49;;;;;;;77.75;52.15;;;18.70;57.40;;;;;;4951705;28;91376;-36
2022/04/14 06:53:16;;;;;;;78.43;52.17;;;18.70;57.50;;;;;;4950488;28;89576;-37
2022/04/14 06:55:45;;;;;;;78.65;51.95;;;18.70;57.40;;;;;;4949240;28;90485;-37
2022/04/14 06:58:11;;;;;;;78.03;52.38;;;18.70;57.40;;;;;;4950489;28;91583;-37
2022/04/14 07:00:37;;;;;;;77.50;51.78;;;18.70;57.30;;;;;;4945770;28;89891;-37
2022/04/14 07:03:02;;;;;;;77.70;51.65;;;18.70;57.40;;;;;;4942236;28;89245;-37
2022/04/14 07:05:28;;;;;;;78.43;51.85;;;18.70;57.20;;;;;;4946583;28;91378;-37
2022/04/14 07:07:54;;;;;;;78.88;52.15;;;18.70;57.40;;;;;;4951061;28;90539;-36
2022/04/14 07:10:20;;;;;;;77.80;51.78;;;18.70;57.30;;;;;;4954504;28;90966;-36
2022/04/14 07:12:46;;;;;;;78.20;52.08;;;18.70;57.30;;;;;;4943540;28;90720;-36
2022/04/14 07:15:12;;;;;;;77.50;51.90;;;18.70;57.30;;;;;;4940132;28;90872;-36
2022/04/14 07:17:38;;;;;;;78.00;51.92;;;18.70;57.30;;;;;;4947044;28;90936;-36
2022/04/14 07:20:07;;;;;;;78.78;52.00;;;18.70;57.20;;;;;;4946019;28;90063;-36
2022/04/14 07:22:49;;;;;;;77.47;52.17;;;18.70;57.30;;;;;;4947936;28;90839;-36
2022/04/14 07:25:15;;;;;;;78.97;52.08;;;18.70;57.20;;;;;;4949050;28;89847;-36
2022/04/14 07:27:42;;;;;;;77.75;51.90;;;18.80;57.30;;;;;;4960929;28;94086;-36
2022/04/14 07:30:09;;;;;;;77.88;51.78;;;18.80;57.20;;;;;;4948068;28;92456;-36
2022/04/14 07:32:39;;;;;;;78.32;52.03;;;18.80;57.20;;;;;;4946966;28;89762;-37
2022/04/14 07:35:06;;;;;;;79.07;51.93;;;18.80;57.20;;;;;;4946852;28;90412;-36
2022/04/14 07:37:32;;;;;;;77.60;51.80;;;18.80;57.20;;;;;;4938714;28;90833;-36
2022/04/14 07:39:58;;;;;;;79.07;52.05;;;18.80;57.20;;;;;;4946461;28;91208;-36
2022/04/14 07:42:31;;;;;;;78.95;52.17;;;18.80;57.30;;;;;;4945978;28;90475;-36
2022/04/14 07:44:57;;;;;;;80.35;52.38;;;18.90;57.20;;;;;;4951734;28;90287;-37
2022/04/14 07:47:24;;;;;;;79.10;51.67;;;18.80;57.20;;;;;;4945945;28;90044;-37
2022/04/14 07:49:50;;;;;;;79.95;52.22;;;18.90;57.30;;;;;;4955369;28;89651;-37
2022/04/14 07:52:15;;;;;;;80.25;52.17;;;18.90;57.30;;;;;;4956031;28;89763;-37
2022/04/14 07:54:41;;;;;;;79.75;52.15;;;18.90;57.10;;;;;;4953964;28;90090;-37
2022/04/14 07:57:06;;;;;;;80.93;52.15;;;18.90;57.20;;;;;;4953016;28;90092;-37
2022/04/14 07:59:32;;;;;;;79.50;52.22;;;18.90;57.20;;;;;;4952424;28;91126;-37
2022/04/14 08:02:00;;;;;;;80.88;52.10;;;18.90;57.20;;;;;;4951089;28;90710;-37
2022/04/14 08:04:26;;;;;;;78.07;52.00;;;19.00;57.30;;;;;;4959142;28;90445;-37
2022/04/14 08:06:52;;;;;;;80.70;52.08;;;18.90;57.10;;;;;;4945378;28;90584;-37
2022/04/14 08:09:18;;;;;;;81.40;52.05;;;18.90;57.20;;;;;;4946582;28;90485;-37
2022/04/14 08:11:44;;;;;;;83.85;52.50;;;18.90;57.50;;;;;;4938614;28;89861;-37
2022/04/14 08:14:09;;;;;;;80.97;52.15;;;18.90;57.70;;;;;;4940515;28;90033;-37
2022/04/14 08:16:35;;;;;;;80.85;52.42;;;19.00;57.90;;;;;;4935037;28;90581;-37
2022/04/14 08:19:01;;;;;;;80.95;52.45;;;19.10;58.10;;;;;;4938220;28;91279;-37
2022/04/14 08:21:26;;;;;;;81.82;52.63;;;19.10;57.90;;;;;;4944758;28;91595;-37
2022/04/14 08:23:53;;;;;;;82.07;52.53;;;19.10;58.10;;;;;;4942997;28;91044;-37
2022/04/14 08:26:19;;;;;;;84.05;53.08;;;19.10;58.30;;;;;;4941307;28;90683;-38
2022/04/14 08:28:46;;;;;;;87.07;53.10;;;19.10;58.10;;;;;;4942761;28;89948;-37
2022/04/14 08:31:12;;;;;;;84.47;52.75;;;19.20;58.50;;;;;;4955099;28;89791;-37
2022/04/14 08:33:38;;;;;;;81.68;52.53;;;19.20;58.60;;;;;;4952488;28;90282;-37
2022/04/14 08:36:05;;;;;;;86.25;52.78;;;19.20;58.80;;;;;;4944876;28;90086;-37
2022/04/14 08:38:31;;;;;;;81.85;52.53;;;19.20;58.90;;;;;;4952734;28;90119;-37
2022/04/14 08:41:03;;;;;;;85.10;52.83;;;19.30;58.80;;;;;;4961062;28;88930;-37
2022/04/14 08:43:34;;;;;;;87.55;52.83;;;19.30;58.60;;;;;;4949185;28;91110;-37
2022/04/14 08:46:01;;;;;;;84.50;53.03;;;19.30;58.80;;;;;;4941457;28;89850;-37
2022/04/14 08:48:28;;;;;;;84.65;52.90;;;19.30;58.80;;;;;;4943270;28;90737;-37
2022/04/14 08:50:55;;;;;;;84.22;52.90;;;19.30;59.00;;;;;;4942877;28;90231;-37
2022/04/14 08:53:25;;;;;;;84.00;52.92;;;19.40;59.50;;;;;;4940388;28;91537;-37
2022/04/14 08:55:51;;;;;;;88.00;53.15;;;19.40;58.70;;;;;;4937230;28;91310;-37
2022/04/14 08:58:26;;;;;;;82.85;53.03;;;19.40;59.10;;;;;;4946462;28;90306;-37
2022/04/14 09:00:56;;;;;;;83.15;52.97;;;19.40;59.30;;;;;;4940172;28;96603;-37
2022/04/14 09:03:25;;;;;;;85.53;53.20;;;19.40;59.30;;;;;;4944076;28;90393;-36
2022/04/14 09:05:51;;;;;;;85.28;53.50;;;19.40;59.20;;;;;;4950909;28;89161;-37
2022/04/14 09:08:17;;;;;;;85.68;53.33;;;19.50;59.10;;;;;;4956221;28;89819;-37
2022/04/14 09:10:43;;;;;;;84.10;52.97;;;19.50;59.40;;;;;;4953044;28;89894;-37
2022/04/14 09:13:12;;;;;;;84.63;53.20;;;19.60;59.50;;;;;;4938554;28;90899;-37
2022/04/14 09:15:38;;;;;;;83.97;53.25;;;19.50;59.10;;;;;;4950203;28;90690;-37
2022/04/14 09:18:04;;;;;;;84.05;53.20;;;19.50;59.60;;;;;;4944297;28;90810;-37
2022/04/14 09:20:36;;;;;;;91.60;53.47;;;19.50;59.60;;;;;;4955096;28;89742;-37
2022/04/14 09:23:21;;;;;;;85.60;53.53;;;19.60;59.70;;;;;;4954031;28;89970;-37
2022/04/14 09:25:51;;;;;;;82.65;53.60;;;19.60;59.70;;;;;;4954500;28;90090;-37
2022/04/14 09:28:19;;;;;;;84.30;53.37;;;19.60;59.60;;;;;;4946461;28;90055;-37
2022/04/14 09:30:57;;;;;;;83.93;52.97;;;19.60;59.50;;;;;;4947190;28;88809;-37
2022/04/14 09:33:23;;;;;;;90.88;53.45;;;19.70;59.40;;;;;;4954086;28;90655;-37
2022/04/14 09:36:09;;;;;;;85.55;53.65;;;19.70;59.40;;;;;;4961241;28;91344;-37
2022/04/14 09:38:59;;;;;;;87.75;53.38;;;19.70;59.30;;;;;;4951896;28;91708;-37
2022/04/14 09:41:33;;;;;;;86.25;53.58;;;19.70;59.40;;;;;;4950229;28;92516;-37
2022/04/14 09:44:08;;;;;;;87.60;53.55;;;19.80;59.30;;;;;;4948436;28;90132;-37
2022/04/14 09:46:35;;;;;;;84.97;53.55;;;19.80;59.30;;;;;;4947050;28;90430;-37
2022/04/14 09:49:07;;;;;;;83.50;53.75;;;19.80;59.20;;;;;;4957352;28;89852;-37
2022/04/14 09:51:35;;;;;;;89.38;53.97;;;19.90;59.10;;;;;;4959082;28;90673;-37
2022/04/14 09:54:18;;;;;;;86.88;53.90;;;19.90;58.90;;;;;;4941783;28;95993;-37
2022/04/14 09:56:47;;;;;;;86.50;53.85;;;19.90;58.70;;;;;;4948253;28;89201;-37
2022/04/14 09:59:18;;;;;;;86.03;53.58;;;19.90;58.70;;;;;;4939190;28;91701;-37
2022/04/14 10:01:44;;;;;;;;;;;19.90;58.80;;;;;;4939295;28;90214;-37
2022/04/14 10:04:30;;;;;;;83.82;53.72;;;20.00;58.80;;;;;;4940683;28;91455;-37
2022/04/14 10:07:03;;;;;;;86.95;53.65;;;20.00;58.60;;;;;;4937625;28;90936;-37
2022/04/14 10:09:30;;;;;;;86.10;53.75;;;20.00;58.20;;;;;;4950088;28;90767;-37
2022/04/14 10:11:56;;;;;;;84.80;53.55;;;20.00;58.30;;;;;;4946504;28;90474;-37
2022/04/14 10:14:24;;;;;;;84.90;53.60;;;20.00;58.20;;;;;;4941574;28;90463;-37
2022/04/14 10:16:50;;;;;;;84.05;53.70;;;20.00;58.00;;;;;;4942298;28;90059;-37
2022/04/14 10:19:17;;;;;;;87.00;53.97;;;20.10;57.80;;;;;;4951793;28;90111;-37
2022/04/14 10:21:44;;;;;;;83.78;54.05;;;20.10;57.70;;;;;;4949592;28;89172;-37
2022/04/14 10:24:11;;;;;;;88.18;53.83;;;20.10;57.70;;;;;;4949978;28;91582;-37
2022/04/14 10:26:38;;;;;;;86.25;53.90;;;20.10;57.50;;;;;;4952555;28;89568;-37
2022/04/14 10:29:06;;;;;;;86.72;53.90;;;20.20;57.50;;;;;;4942618;28;91890;-37
2022/04/14 10:31:35;;;;;;;84.32;53.75;;;20.20;57.40;;;;;;4951397;28;89979;-37
2022/04/14 10:34:04;;;;;;;87.22;54.45;;;20.20;57.20;;;;;;4957718;28;90178;-37
2022/04/14 10:36:32;;;;;;;85.68;54.10;;;20.30;57.10;;;;;;4949137;28;91558;-37
2022/04/14 10:38:59;;;;;;;88.75;54.00;;;20.30;56.90;;;;;;4951832;28;89979;-37
2022/04/14 10:41:31;;;;;;;87.00;53.88;;;20.30;56.80;;;;;;4950932;28;89918;-37
2022/04/14 10:44:00;;;;;;;86.85;53.97;;;20.30;56.80;;;;;;4946123;28;90664;-37
2022/04/14 10:46:36;;;;;;;85.55;53.83;;;20.30;56.70;;;;;;4947607;28;90558;-37
2022/04/14 10:49:16;;;;;;;88.03;54.03;;;20.30;56.70;;;;;;4951124;28;90415;-37
2022/04/14 10:51:43;;;;;;;86.55;54.00;;;20.30;56.70;;;;;;4954193;28;89922;-37
2022/04/14 10:54:11;;;;;;;86.65;54.13;;;20.30;56.60;;;;;;4949967;28;92209;-37
2022/04/14 10:56:36;;;;;;;86.75;53.92;;;20.30;56.50;;;;;;4940881;28;91164;-37
2022/04/14 10:59:03;;;;;;;86.05;54.17;;;20.40;56.50;;;;;;4947938;28;89957;-37
2022/04/14 11:01:47;;;;;;;85.90;54.10;;;20.40;56.40;;;;;;4939557;28;91493;-37
2022/04/14 11:04:41;;;;;;;89.20;54.05;;;20.40;56.30;;;;;;4963719;28;90399;-37
2022/04/14 11:07:16;;;;;;;87.13;54.00;;;20.40;56.30;;;;;;4949710;28;89715;-37
2022/04/14 11:09:42;;;;;;;85.50;53.72;;;20.40;56.20;;;;;;4944980;28;90355;-37
2022/04/14 11:12:12;;;;;;;84.85;53.85;;;20.50;56.20;;;;;;4944417;28;89687;-37
2022/04/14 11:14:47;;;;;;;85.72;53.97;;;20.50;56.20;;;;;;4954297;28;93215;-37
2022/04/14 11:17:33;;;;;;;86.88;54.15;;;20.50;56.10;;;;;;4934334;28;90603;-37
2022/04/14 11:20:24;;;;;;;85.85;53.92;;;20.50;56.00;;;;;;4946945;28;90885;-37
2022/04/14 11:23:17;;;;;;;85.18;54.03;;;20.50;56.00;;;;;;4952069;28;90067;-37
2022/04/14 11:25:45;;;;;;;90.88;54.22;;;20.50;55.90;;;;;;4936515;28;90455;-37
2022/04/14 11:28:18;;;;;;;85.45;54.55;;;20.60;55.90;;;;;;4934227;28;89957;-37
2022/04/14 11:30:44;;;;;;;87.53;54.30;;;20.60;55.80;;;;;;4965746;28;92168;-37
2022/04/14 11:33:34;;;;;;;87.45;54.55;;;20.60;55.70;;;;;;4950321;28;90057;-37
2022/04/14 11:36:12;;;;;;;86.03;54.33;;;20.60;55.60;;;;;;4941031;28;91717;-37
2022/04/14 11:39:05;;;;;;;85.90;54.30;;;20.60;55.60;;;;;;4961912;28;89871;-37
2022/04/14 11:41:31;;;;;;;85.97;54.28;;;20.70;55.60;;;;;;4954320;28;91624;-37
2022/04/14 11:43:57;;;;;;;87.57;54.33;;;20.70;55.60;;;;;;4937871;28;92215;-35
2022/04/14 11:46:26;;;;;;;85.22;54.13;;;20.60;55.50;;;;;;4940340;28;92765;-36
2022/04/14 11:48:52;;;;;;;85.80;54.15;;;20.70;55.50;;;;;;4949638;28;92460;-36
2022/04/14 11:51:18;;;;;;;88.20;54.25;;;20.60;55.50;;;;;;4945249;28;90279;-36
2022/04/14 11:53:44;;;;;;;86.97;54.33;;;20.70;55.50;;;;;;4939761;28;90705;-35
2022/04/14 11:56:17;;;;;;;85.68;54.25;;;20.70;55.50;;;;;;4952130;28;91046;-36
2022/04/14 11:58:43;;;;;;;87.40;54.20;;;20.70;55.40;;;;;;4949382;28;90874;-36
2022/04/14 12:01:08;;;;;;;85.97;54.00;;;20.80;55.50;;;;;;4950590;28;89893;-36
2022/04/14 12:03:34;;;;;;;88.22;54.22;;;20.80;55.40;;;;;;4939184;28;91157;-36
2022/04/14 12:06:08;;;;;;;87.78;54.25;;;20.80;55.40;;;;;;4945094;28;95983;-37
2022/04/14 12:08:34;;;;;;;86.35;54.05;;;20.80;55.30;;;;;;4940941;28;92024;-37
2022/04/14 12:11:14;;;;;;;87.03;54.75;;;20.80;55.20;;;;;;4941223;28;90855;-37
2022/04/14 12:13:40;;;;;;;87.32;54.47;;;20.80;55.10;;;;;;4942274;28;90761;-35
2022/04/14 12:16:08;;;;;;;87.82;54.45;;;20.90;55.20;;;;;;4936386;28;90285;-36
2022/04/14 12:18:41;;;;;;;87.85;54.55;;;20.90;55.20;;;;;;4943098;28;90899;-36
2022/04/14 12:21:21;;;;;;;86.68;54.80;;;20.90;55.20;;;;;;4944432;28;91679;-35
2022/04/14 12:23:48;;;;;;;86.90;54.63;;;20.90;55.10;;;;;;4939790;28;91103;-36
2022/04/14 12:26:15;;;;;;;87.50;54.67;;;20.90;55.60;;;;;;4946794;28;89672;-36
2022/04/14 12:28:41;;;;;;;88.28;54.45;;;20.90;55.00;;;;;;4947657;28;89356;-37
2022/04/14 12:31:11;;;;;;;86.70;54.50;;;21.00;55.10;;;;;;4940883;28;89509;-37